createdAt,value
2018-09-13T00:00:13.079Z,1130.56
2018-09-13T00:01:13.055Z,1130.69
2018-09-13T00:02:13.011Z,1130.73
2018-09-13T00:03:13.107Z,1130.91
2018-09-13T00:04:13.091Z,1131.04
2018-09-13T00:05:13.039Z,1131.15
2018-09-13T00:06:13.036Z,1131.29
2018-09-13T00:07:13.026Z,1131.45
2018-09-13T00:08:13.034Z,1131.76
2018-09-13T00:09:13.026Z,1132.04
2018-09-13T00:10:13.014Z,1132.27
2018-09-13T00:11:13.043Z,1132.47
2018-09-13T00:12:13.027Z,1132.55
2018-09-13T00:13:13.054Z,1132.64
2018-09-13T00:14:13.033Z,1132.7
2018-09-13T00:15:13.082Z,1132.69
2018-09-13T00:16:13.139Z,1132.53
2018-09-13T00:17:13.142Z,1132.38
2018-09-13T00:18:13.169Z,1132.31
2018-09-13T00:19:13.064Z,1132.11
2018-09-13T00:20:13.068Z,1132.11
2018-09-13T00:21:13.068Z,1132.04
2018-09-13T00:22:13.094Z,1131.98
2018-09-13T00:23:13.069Z,1131.91
2018-09-13T00:27:41.781Z,1131.68
2018-09-13T00:28:41.756Z,1131.67
2018-09-13T00:29:42.307Z,1131.65
2018-09-13T00:30:41.736Z,1131.58
2018-09-13T00:31:41.787Z,1131.47
2018-09-13T00:32:41.775Z,1131.41
2018-09-13T00:33:41.970Z,1131.37
2018-09-13T00:34:41.776Z,1131.36
2018-09-13T00:35:41.762Z,1131.34
2018-09-13T00:36:41.755Z,1131.33
2018-09-13T00:37:41.748Z,1131.38
2018-09-13T00:38:41.757Z,1131.38
2018-09-13T00:39:41.776Z,1131.36
2018-09-13T00:40:41.761Z,1131.35
2018-09-13T00:41:41.780Z,1131.42
2018-09-13T00:42:41.777Z,1131.56
2018-09-13T00:43:41.760Z,1131.5
2018-09-13T00:44:41.766Z,1131.5
2018-09-13T00:45:41.773Z,1131.49
2018-09-13T00:53:25.611Z,1131.46
2018-09-13T00:53:37.938Z,1131.49
2018-09-13T00:54:37.937Z,1131.52
2018-09-13T00:55:37.989Z,1131.6
2018-09-13T00:56:37.941Z,1131.65
2018-09-13T00:57:37.920Z,1131.78
2018-09-13T00:58:37.978Z,1131.89
2018-09-13T00:59:37.965Z,1131.92
2018-09-13T01:00:37.936Z,1132.02
2018-09-13T01:01:37.958Z,1132.1
2018-09-13T01:02:37.949Z,1132.12
2018-09-13T01:03:37.936Z,1132.06
2018-09-13T01:04:37.991Z,1132.09
2018-09-13T01:05:37.950Z,1132.06
2018-09-13T01:06:37.980Z,1132.04
2018-09-13T01:07:37.955Z,1131.97
2018-09-13T01:08:37.960Z,1131.97
2018-09-13T01:09:37.944Z,1131.94
2018-09-13T01:10:37.949Z,1131.85
2018-09-13T01:11:37.954Z,1131.77
2018-09-13T01:12:37.942Z,1131.77
2018-09-13T01:13:37.988Z,1131.73
2018-09-13T01:14:37.963Z,1131.74
2018-09-13T01:15:37.967Z,1131.68
2018-09-13T01:16:37.990Z,1131.7
2018-09-13T01:17:37.975Z,1131.68
2018-09-13T01:18:37.985Z,1131.7
2018-09-13T01:19:37.985Z,1131.64
2018-09-13T01:20:37.999Z,1131.66
2018-09-13T01:21:37.991Z,1131.61
2018-09-13T01:22:37.980Z,1131.59
2018-09-13T01:23:38.001Z,1131.64
2018-09-13T01:24:37.972Z,1131.68
2018-09-13T01:25:37.976Z,1131.63
2018-09-13T01:26:38.013Z,1131.7
2018-09-13T01:27:37.981Z,1131.71
2018-09-13T01:28:38.010Z,1131.7
2018-09-13T01:29:37.967Z,1131.74
2018-09-13T01:30:38.026Z,1131.73
2018-09-13T01:31:37.997Z,1131.76
2018-09-13T01:32:37.989Z,1131.77
2018-09-13T01:33:37.988Z,1131.78
2018-09-13T01:34:38.009Z,1131.84
2018-09-13T01:35:38.038Z,1131.87
2018-09-13T01:36:38.029Z,1131.87
2018-09-13T01:37:38.057Z,1131.95
2018-09-13T01:38:38.016Z,1131.93
2018-09-13T01:39:38.004Z,1131.97
2018-09-13T01:40:37.999Z,1131.93
2018-09-13T01:41:38.041Z,1132.03
2018-09-13T01:42:38.013Z,1132.05
2018-09-13T01:43:38.005Z,1132.12
2018-09-13T01:44:38.001Z,1132.14
2018-09-13T01:45:38.017Z,1132.12
2018-09-13T01:46:38.103Z,1132.24
2018-09-13T01:47:38.059Z,1132.21
2018-09-13T01:48:38.053Z,1132.19
2018-09-13T01:49:38.115Z,1132.21
2018-09-13T01:50:37.999Z,1132.29
2018-09-13T01:51:38.018Z,1132.36
2018-09-13T01:52:38.035Z,1132.44
2018-09-13T01:53:38.048Z,1132.47
2018-09-13T01:54:38.043Z,1132.59
2018-09-13T01:55:38.043Z,1132.64
2018-09-13T01:56:38.034Z,1132.73
2018-09-13T01:57:38.039Z,1132.74
2018-09-13T01:58:38.056Z,1132.71
2018-09-13T01:59:38.022Z,1132.71
2018-09-13T02:00:38.037Z,1132.66
2018-09-13T02:01:38.040Z,1132.7
2018-09-13T02:02:38.042Z,1132.71
2018-09-13T02:03:38.051Z,1132.68
2018-09-13T02:04:38.088Z,1132.64
2018-09-13T02:05:38.050Z,1132.7
2018-09-13T02:06:38.063Z,1132.68
2018-09-13T02:07:38.071Z,1132.69
2018-09-13T02:08:38.053Z,1132.68
2018-09-13T02:09:38.060Z,1132.68
2018-09-13T02:10:38.099Z,1132.63
2018-09-13T02:11:38.059Z,1132.61
2018-09-13T02:12:38.047Z,1132.55
2018-09-13T02:13:38.052Z,1132.58
2018-09-13T02:14:38.045Z,1132.56
2018-09-13T02:15:38.114Z,1132.56
2018-09-13T02:16:38.093Z,1132.61
2018-09-13T02:17:38.073Z,1132.67
2018-09-13T02:18:38.065Z,1132.68
2018-09-13T02:19:38.075Z,1132.72
2018-09-13T02:20:38.055Z,1132.73
2018-09-13T02:21:38.070Z,1132.78
2018-09-13T02:22:38.074Z,1132.81
2018-09-13T02:23:38.077Z,1132.89
2018-09-13T02:24:38.078Z,1132.94
2018-09-13T02:25:38.094Z,1132.97
2018-09-13T02:26:38.096Z,1132.97
2018-09-13T02:27:38.071Z,1132.97
2018-09-13T02:28:38.117Z,1133.01
2018-09-13T02:29:38.100Z,1133.03
2018-09-13T02:30:38.087Z,1133.02
2018-09-13T02:31:38.240Z,1133.02
2018-09-13T02:32:38.141Z,1133.02
2018-09-13T02:33:38.137Z,1133.05
2018-09-13T02:34:38.132Z,1132.99
2018-09-13T02:35:38.114Z,1132.96
2018-09-13T02:36:38.101Z,1132.96
2018-09-13T02:37:38.091Z,1132.91
2018-09-13T02:38:38.108Z,1132.88
2018-09-13T02:39:38.083Z,1132.95
2018-09-13T02:40:38.109Z,1132.93
2018-09-13T02:41:38.148Z,1132.9
2018-09-13T02:42:38.101Z,1132.95
2018-09-13T02:43:38.112Z,1133
2018-09-13T02:44:38.099Z,1133.03
2018-09-13T02:45:38.170Z,1133.12
2018-09-13T02:46:38.144Z,1133.15
2018-09-13T02:47:38.179Z,1133.15
2018-09-13T02:48:38.139Z,1133.17
2018-09-13T02:49:38.183Z,1133.14
2018-09-13T02:50:38.135Z,1133.17
2018-09-13T02:51:38.126Z,1133.08
2018-09-13T02:52:38.120Z,1133.05
2018-09-13T02:53:38.142Z,1133.06
2018-09-13T02:58:07.480Z,1133.14
2018-09-13T02:59:07.490Z,1133.16
2018-09-13T03:00:07.506Z,1133.14
2018-09-13T03:01:07.471Z,1133.11
2018-09-13T03:02:07.462Z,1133.1
2018-09-13T03:03:07.490Z,1133.12
2018-09-13T03:04:07.442Z,1133.09
2018-09-13T03:05:07.493Z,1133.01
2018-09-13T03:06:07.497Z,1132.95
2018-09-13T03:07:07.468Z,1132.9
2018-09-13T03:08:07.460Z,1132.83
2018-09-13T03:09:07.476Z,1132.78
2018-09-13T03:10:07.548Z,1132.74
2018-09-13T03:11:07.460Z,1132.72
2018-09-13T03:12:07.477Z,1132.67
2018-09-13T03:13:07.541Z,1132.65
2018-09-13T03:14:07.491Z,1132.6
2018-09-13T03:15:07.480Z,1132.53
2018-09-13T03:16:07.530Z,1132.39
2018-09-13T03:17:07.502Z,1132.34
2018-09-13T03:18:07.501Z,1132.26
2018-09-13T03:19:07.482Z,1132.17
2018-09-13T03:20:07.484Z,1132.13
2018-09-13T03:21:07.498Z,1132.07
2018-09-13T03:22:07.494Z,1131.97
2018-09-13T03:23:07.516Z,1131.83
2018-09-13T03:24:07.489Z,1131.83
2018-09-13T03:25:07.518Z,1131.75
2018-09-13T03:26:07.561Z,1131.72
2018-09-13T03:27:07.518Z,1131.66
2018-09-13T03:28:07.501Z,1131.67
2018-09-13T03:29:07.499Z,1131.62
2018-09-13T03:30:07.547Z,1131.58
2018-09-13T03:31:07.511Z,1131.57
2018-09-13T03:32:07.523Z,1131.55
2018-09-13T03:33:07.534Z,1131.63
2018-09-13T03:34:07.511Z,1131.54
2018-09-13T03:35:07.516Z,1131.5
2018-09-13T03:36:07.549Z,1131.5
2018-09-13T03:37:07.493Z,1131.51
2018-09-13T03:38:07.526Z,1131.49
2018-09-13T03:39:07.515Z,1131.42
2018-09-13T03:40:07.537Z,1131.42
2018-09-13T03:41:07.521Z,1131.34
2018-09-13T03:42:07.700Z,1131.28
2018-09-13T03:43:07.539Z,1131.19
2018-09-13T03:44:07.515Z,1131.09
2018-09-13T03:45:07.627Z,1131.03
2018-09-13T03:46:07.527Z,1131.01
2018-09-13T03:47:07.547Z,1130.94
2018-09-13T03:48:07.529Z,1130.84
2018-09-13T03:49:07.542Z,1130.91
2018-09-13T03:50:07.544Z,1130.89
2018-09-13T03:51:07.524Z,1130.98
2018-09-13T03:52:07.633Z,1130.94
2018-09-13T03:53:07.561Z,1131.08
2018-09-13T03:54:07.537Z,1131.04
2018-09-13T03:55:07.906Z,1131.05
2018-09-13T03:56:07.558Z,1131.09
2018-09-13T03:57:07.662Z,1131.11
2018-09-13T03:58:07.571Z,1131.07
2018-09-13T03:59:07.557Z,1131.13
2018-09-13T04:00:07.578Z,1131.12
2018-09-13T04:01:07.561Z,1131.22
2018-09-13T04:02:07.561Z,1131.21
2018-09-13T04:03:07.563Z,1131.22
2018-09-13T04:04:07.572Z,1131.22
2018-09-13T04:05:07.573Z,1131.18
2018-09-13T04:06:07.665Z,1131.15
2018-09-13T04:07:07.615Z,1131.1
2018-09-13T04:08:07.865Z,1131.08
2018-09-13T04:09:07.618Z,1131
2018-09-13T04:10:07.600Z,1130.87
2018-09-13T04:11:07.576Z,1130.83
2018-09-13T04:12:07.594Z,1130.64
2018-09-13T04:13:07.671Z,1130.57
2018-09-13T04:19:49.673Z,1129.92
2018-09-13T04:20:49.660Z,1129.83
2018-09-13T04:21:49.660Z,1129.7
2018-09-13T04:28:30.159Z,1129.2
2018-09-13T04:29:30.127Z,1129.08
2018-09-13T04:30:30.119Z,1128.86
2018-09-13T04:31:30.208Z,1128.67
2018-09-13T04:38:09.359Z,1128.31
2018-09-13T04:39:09.333Z,1128.3
2018-09-13T04:40:09.346Z,1128.24
2018-09-13T04:41:09.349Z,1128.02
2018-09-13T04:42:09.374Z,1127.71
2018-09-13T04:43:09.355Z,1127.53
2018-09-13T04:44:09.368Z,1127.55
2018-09-13T04:55:07.891Z,1127.57
2018-09-13T04:55:20.672Z,1127.4
2018-09-13T04:56:20.577Z,1127.3
2018-09-13T04:57:20.564Z,1127.36
2018-09-13T04:58:20.582Z,1127.28
2018-09-13T04:59:20.559Z,1127.39
2018-09-13T05:00:20.632Z,1127.53
2018-09-13T05:01:20.567Z,1127.71
2018-09-13T05:02:20.641Z,1127.93
2018-09-13T05:03:20.547Z,1128.12
2018-09-13T05:04:20.560Z,1128.32
2018-09-13T05:05:20.573Z,1128.35
2018-09-13T05:06:20.590Z,1128.32
2018-09-13T05:07:20.550Z,1128.25
2018-09-13T05:08:20.547Z,1128.35
2018-09-13T05:09:20.553Z,1128.4
2018-09-13T05:10:20.659Z,1128.53
2018-09-13T05:11:20.600Z,1128.78
2018-09-13T05:12:20.587Z,1128.85
2018-09-13T05:13:20.644Z,1128.85
2018-09-13T05:14:20.578Z,1128.94
2018-09-13T05:15:20.558Z,1128.98
2018-09-13T05:16:20.588Z,1129.17
2018-09-13T05:17:20.594Z,1129.39
2018-09-13T05:18:20.580Z,1129.66
2018-09-13T05:19:20.586Z,1129.92
2018-09-13T05:20:20.596Z,1130.2
2018-09-13T05:21:20.585Z,1130.44
2018-09-13T05:22:20.595Z,1130.39
2018-09-13T05:23:20.580Z,1130.51
2018-09-13T05:24:20.628Z,1130.52
2018-09-13T05:25:20.628Z,1130.67
2018-09-13T05:26:20.587Z,1130.7
2018-09-13T05:27:20.603Z,1130.85
2018-09-13T05:28:20.581Z,1130.92
2018-09-13T05:29:20.603Z,1131.02
2018-09-13T05:30:20.623Z,1131.25
2018-09-13T05:31:20.599Z,1131.31
2018-09-13T05:32:20.610Z,1131.43
2018-09-13T05:33:20.599Z,1131.49
2018-09-13T05:34:20.591Z,1131.71
2018-09-13T05:35:20.611Z,1131.68
2018-09-13T05:36:20.616Z,1131.77
2018-09-13T05:37:20.644Z,1131.76
2018-09-13T05:38:20.703Z,1131.77
2018-09-13T05:39:20.622Z,1131.87
2018-09-13T05:40:20.610Z,1131.84
2018-09-13T05:41:20.665Z,1131.85
2018-09-13T05:42:20.621Z,1131.9
2018-09-13T05:43:20.662Z,1131.97
2018-09-13T05:44:20.653Z,1131.98
2018-09-13T05:45:20.651Z,1132.04
2018-09-13T05:46:20.627Z,1132.14
2018-09-13T05:47:20.651Z,1132.12
2018-09-13T05:48:20.658Z,1132.14
2018-09-13T05:49:20.680Z,1132.18
2018-09-13T05:50:20.637Z,1132.29
2018-09-13T05:51:20.680Z,1132.42
2018-09-13T05:52:20.659Z,1132.48
2018-09-13T05:53:20.743Z,1132.59
2018-09-13T05:54:20.707Z,1132.66
2018-09-13T05:55:20.687Z,1132.77
2018-09-13T05:56:20.657Z,1132.79
2018-09-13T05:57:20.630Z,1132.84
2018-09-13T05:58:20.717Z,1132.91
2018-09-13T05:59:20.653Z,1132.99
2018-09-13T06:00:20.703Z,1133
2018-09-13T06:01:20.691Z,1133.02
2018-09-13T06:02:20.683Z,1133.07
2018-09-13T06:09:01.032Z,1132.99
2018-09-13T06:10:01.016Z,1132.95
2018-09-13T06:11:01.014Z,1132.91
2018-09-13T06:12:00.989Z,1132.82
2018-09-13T06:18:39.263Z,1131.81
2018-09-13T06:19:39.239Z,1131.44
2018-09-13T06:20:39.242Z,1131.08
2018-09-13T06:21:39.251Z,1130.67
2018-09-13T06:22:39.223Z,1130.03
2018-09-13T06:23:39.259Z,1129.45
2018-09-13T06:24:39.236Z,1128.72
2018-09-13T06:25:39.272Z,1128.04
2018-09-13T06:26:39.256Z,1127.36
2018-09-13T06:27:39.263Z,1126.53
2018-09-13T06:28:39.259Z,1125.32
2018-09-13T06:29:39.360Z,1124.55
2018-09-13T06:30:39.236Z,1123.95
2018-09-13T06:31:39.269Z,1122.94
2018-09-13T06:32:39.281Z,1121.64
2018-09-13T06:33:39.266Z,1120.49
2018-09-13T06:34:39.341Z,1119.74
2018-09-13T06:35:39.278Z,1119.39
2018-09-13T06:36:39.339Z,1119
2018-09-13T06:37:39.281Z,1118.15
2018-09-13T06:38:39.282Z,1117.21
2018-09-13T06:39:39.280Z,1116.65
2018-09-13T06:40:39.673Z,1116.18
2018-09-13T06:41:39.253Z,1115.73
2018-09-13T06:42:39.286Z,1114.45
2018-09-13T06:43:39.259Z,1112.96
2018-09-13T06:44:39.286Z,1112.89
2018-09-13T06:45:39.293Z,1113.2
2018-09-13T06:46:39.282Z,1113.5
2018-09-13T06:47:39.284Z,1113.8
2018-09-13T06:48:39.296Z,1114.03
2018-09-13T06:49:39.302Z,1114.02
2018-09-13T06:50:39.368Z,1113.95
2018-09-13T06:51:39.284Z,1113.83
2018-09-13T06:52:39.291Z,1113.81
2018-09-13T06:53:39.310Z,1113.72
2018-09-13T06:54:39.289Z,1113.39
2018-09-13T06:55:39.305Z,1112.21
2018-09-13T06:56:39.281Z,1109.88
2018-09-13T06:57:39.375Z,1108.49
2018-09-13T06:59:59.298Z,1108.54
2018-09-13T07:00:59.245Z,1108.84
2018-09-13T07:09:47.856Z,1111.1
2018-09-13T07:10:47.855Z,1111.22
2018-09-13T07:11:47.915Z,1111.53
2018-09-13T07:12:47.811Z,1111.91
2018-09-13T07:13:47.806Z,1111.95
2018-09-13T07:14:47.862Z,1112.08
2018-09-13T07:15:47.889Z,1112.09
2018-09-13T07:16:47.869Z,1112.36
2018-09-13T07:17:47.819Z,1112.42
2018-09-13T07:18:47.843Z,1112.75
2018-09-13T07:19:47.852Z,1112.96
2018-09-13T07:20:47.922Z,1113.2
2018-09-13T07:21:47.831Z,1113.39
2018-09-13T07:22:47.863Z,1113.55
2018-09-13T07:23:47.875Z,1113.95
2018-09-13T07:24:47.865Z,1114.11
2018-09-13T07:25:47.926Z,1114.4
2018-09-13T07:26:47.855Z,1114.66
2018-09-13T07:27:47.943Z,1115.27
2018-09-13T07:28:47.838Z,1115.41
2018-09-13T07:29:47.847Z,1115.62
2018-09-13T07:30:47.929Z,1115.75
2018-09-13T07:31:47.858Z,1115.92
2018-09-13T07:32:47.845Z,1116.19
2018-09-13T07:33:47.873Z,1116.6
2018-09-13T07:34:47.857Z,1116.85
2018-09-13T07:35:47.944Z,1117.27
2018-09-13T07:36:47.912Z,1117.63
2018-09-13T07:37:47.899Z,1117.9
2018-09-13T07:38:47.868Z,1118.11
2018-09-13T07:39:47.878Z,1118.55
2018-09-13T07:40:47.861Z,1118.71
2018-09-13T07:41:47.963Z,1118.91
2018-09-13T07:42:47.901Z,1119.14
2018-09-13T07:43:47.880Z,1119.38
2018-09-13T07:44:47.902Z,1119.51
2018-09-13T07:45:47.883Z,1119.71
2018-09-13T07:46:47.891Z,1119.86
2018-09-13T07:47:47.899Z,1120.2
2018-09-13T07:48:47.879Z,1120.5
2018-09-13T07:49:48.050Z,1120.96
2018-09-13T07:50:47.906Z,1121.18
2018-09-13T07:51:47.883Z,1121.64
2018-09-13T07:52:47.892Z,1121.9
2018-09-13T07:53:47.917Z,1122.11
2018-09-13T07:54:47.899Z,1122.29
2018-09-13T07:55:47.907Z,1122.7
2018-09-13T07:56:47.913Z,1123.01
2018-09-13T07:57:47.892Z,1123.29
2018-09-13T07:58:47.925Z,1123.53
2018-09-13T07:59:47.909Z,1123.63
2018-09-13T08:00:47.923Z,1123.74
2018-09-13T08:01:47.898Z,1123.82
2018-09-13T08:02:47.914Z,1124.01
2018-09-13T08:03:47.928Z,1124.19
2018-09-13T08:04:47.977Z,1124.33
2018-09-13T08:05:47.903Z,1124.46
2018-09-13T08:06:47.916Z,1124.6
2018-09-13T08:07:47.933Z,1124.73
2018-09-13T08:08:47.940Z,1124.88
2018-09-13T08:09:47.919Z,1125.07
2018-09-13T08:10:47.946Z,1125.13
2018-09-13T08:11:48.025Z,1125.16
2018-09-13T08:12:47.919Z,1125.17
2018-09-13T08:13:47.939Z,1125.36
2018-09-13T08:14:47.935Z,1125.48
2018-09-13T08:15:48.033Z,1125.61
2018-09-13T08:16:47.915Z,1125.58
2018-09-13T08:17:47.935Z,1125.62
2018-09-13T08:18:47.972Z,1125.75
2018-09-13T08:19:47.930Z,1125.73
2018-09-13T08:20:47.953Z,1125.72
2018-09-13T08:21:48.088Z,1125.69
2018-09-13T08:22:47.935Z,1125.69
2018-09-13T08:23:47.970Z,1125.64
2018-09-13T08:24:47.924Z,1125.66
2018-09-13T08:25:47.976Z,1125.77
2018-09-13T08:26:48.022Z,1125.7
2018-09-13T08:27:47.984Z,1125.74
2018-09-13T08:28:47.955Z,1125.65
2018-09-13T08:29:47.976Z,1125.69
2018-09-13T08:30:48.032Z,1125.8
2018-09-13T08:31:47.945Z,1125.96
2018-09-13T08:32:47.959Z,1126.04
2018-09-13T08:33:47.962Z,1126.03
2018-09-13T08:34:48.064Z,1125.93
2018-09-13T08:35:47.944Z,1125.79
2018-09-13T08:36:47.983Z,1125.75
2018-09-13T08:37:48.031Z,1125.71
2018-09-13T08:38:47.988Z,1125.64
2018-09-13T08:39:48.034Z,1125.67
2018-09-13T08:40:47.965Z,1125.65
2018-09-13T08:41:47.986Z,1125.67
2018-09-13T08:42:47.973Z,1125.83
2018-09-13T08:43:47.979Z,1125.82
2018-09-13T08:44:47.993Z,1125.92
2018-09-13T08:45:47.977Z,1125.9
2018-09-13T08:46:47.995Z,1125.84
2018-09-13T08:47:47.983Z,1125.8
2018-09-13T08:48:48.013Z,1125.78
2018-09-13T08:49:48.018Z,1125.7
2018-09-13T08:50:47.981Z,1125.6
2018-09-13T08:51:48.008Z,1125.49
2018-09-13T08:52:47.984Z,1125.22
2018-09-13T08:53:47.979Z,1125.06
2018-09-13T08:54:47.987Z,1124.85
2018-09-13T08:55:48.014Z,1124.53
2018-09-13T08:56:48.009Z,1124.34
2018-09-13T08:57:48.010Z,1124.2
2018-09-13T08:58:48.079Z,1124.05
2018-09-13T08:59:48.082Z,1123.9
2018-09-13T09:00:48.118Z,1123.76
2018-09-13T09:01:48.012Z,1123.58
2018-09-13T09:02:48.007Z,1123.58
2018-09-13T09:03:48.015Z,1123.44
2018-09-13T09:04:48.018Z,1123.3
2018-09-13T09:05:48.027Z,1123.14
2018-09-13T09:06:48.008Z,1123.06
2018-09-13T09:07:48.007Z,1122.92
2018-09-13T09:08:48.025Z,1122.85
2018-09-13T09:09:48.048Z,1122.79
2018-09-13T09:10:48.008Z,1122.83
2018-09-13T09:11:48.036Z,1122.69
2018-09-13T09:12:48.068Z,1122.67
2018-09-13T09:13:48.040Z,1122.55
2018-09-13T09:14:48.013Z,1122.42
2018-09-13T09:15:48.020Z,1122.29
2018-09-13T09:16:48.041Z,1122.23
2018-09-13T09:17:48.036Z,1122.3
2018-09-13T09:18:48.040Z,1122.29
2018-09-13T09:19:48.031Z,1122.31
2018-09-13T09:20:48.016Z,1122.23
2018-09-13T09:21:48.064Z,1122.24
2018-09-13T09:22:48.032Z,1122.21
2018-09-13T09:23:48.044Z,1122.09
2018-09-13T09:24:48.049Z,1122.18
2018-09-13T09:25:48.050Z,1122.12
2018-09-13T09:26:48.045Z,1122.07
2018-09-13T09:27:48.155Z,1122.14
2018-09-13T09:28:48.140Z,1122.09
2018-09-13T09:29:48.074Z,1122.08
2018-09-13T09:30:48.068Z,1121.93
2018-09-13T09:31:48.126Z,1121.82
2018-09-13T09:32:48.069Z,1121.71
2018-09-13T09:33:48.069Z,1121.57
2018-09-13T09:34:48.156Z,1121.41
2018-09-13T09:35:48.055Z,1121.25
2018-09-13T09:36:48.064Z,1121.12
2018-09-13T09:37:48.062Z,1120.73
2018-09-13T09:38:48.193Z,1120.4
2018-09-13T09:39:48.128Z,1119.94
2018-09-13T09:40:48.079Z,1119.75
2018-09-13T09:41:48.093Z,1119.4
2018-09-13T09:42:48.166Z,1119
2018-09-13T09:43:48.148Z,1118.84
2018-09-13T09:44:48.072Z,1118.53
2018-09-13T09:45:48.094Z,1118.21
2018-09-13T09:46:48.107Z,1117.87
2018-09-13T09:47:48.094Z,1117.42
2018-09-13T09:48:48.431Z,1117.01
2018-09-13T09:49:48.104Z,1116.68
2018-09-13T09:50:48.078Z,1116.55
2018-09-13T09:51:48.092Z,1116.49
2018-09-13T09:52:48.101Z,1116.45
2018-09-13T09:53:48.079Z,1116.2
2018-09-13T09:54:48.107Z,1116.21
2018-09-13T09:55:48.083Z,1116.14
2018-09-13T09:56:48.085Z,1116.17
2018-09-13T09:57:48.118Z,1116.18
2018-09-13T09:58:48.106Z,1116.05
2018-09-13T09:59:48.105Z,1115.99
2018-09-13T10:00:48.116Z,1115.9
2018-09-13T10:01:48.086Z,1115.83
2018-09-13T10:02:48.108Z,1115.82
2018-09-13T10:03:48.106Z,1115.72
2018-09-13T10:04:48.107Z,1115.71
2018-09-13T10:05:48.107Z,1115.64
2018-09-13T10:06:48.122Z,1115.31
2018-09-13T10:07:48.125Z,1115.07
2018-09-13T10:08:48.100Z,1114.88
2018-09-13T10:09:48.213Z,1114.38
2018-09-13T10:10:48.153Z,1114.03
2018-09-13T10:11:48.111Z,1113.62
2018-09-13T10:12:48.125Z,1113.35
2018-09-13T10:13:48.125Z,1113.07
2018-09-13T10:14:48.140Z,1112.84
2018-09-13T10:15:48.211Z,1112.25
2018-09-13T10:16:48.131Z,1111.86
2018-09-13T10:17:48.122Z,1111.46
2018-09-13T10:18:48.126Z,1110.96
2018-09-13T10:19:48.140Z,1110.13
2018-09-13T10:21:48.157Z,1108.77
2018-09-13T10:22:48.166Z,1108.13
2018-09-13T10:23:48.233Z,1107.65
2018-09-13T10:24:48.144Z,1107.09
2018-09-13T10:25:48.137Z,1106.39
2018-09-13T10:26:48.203Z,1105.69
2018-09-13T10:27:48.187Z,1105.16
2018-09-13T10:28:48.134Z,1104.1
2018-09-13T10:29:48.208Z,1103.4
2018-09-13T10:30:48.169Z,1102.73
2018-09-13T10:31:48.151Z,1102.32
2018-09-13T10:32:48.157Z,1101.81
2018-09-13T10:33:48.158Z,1101.78
2018-09-13T10:34:48.161Z,1101.66
2018-09-13T10:35:48.183Z,1101.58
2018-09-13T10:36:48.203Z,1101.46
2018-09-13T10:37:48.181Z,1101.42
2018-09-13T10:38:48.186Z,1101.42
2018-09-13T10:39:48.201Z,1101.84
2018-09-13T10:40:48.295Z,1102.35
2018-09-13T10:41:48.186Z,1102.7
2018-09-13T10:42:48.194Z,1103.33
2018-09-13T10:43:48.261Z,1103.26
2018-09-13T10:44:48.206Z,1103.2
2018-09-13T10:45:48.196Z,1103.05
2018-09-13T10:46:48.206Z,1103
2018-09-13T10:47:56.485Z,1102.61
2018-09-13T10:48:48.214Z,1102.4
2018-09-13T10:49:48.233Z,1101.94
2018-09-13T10:50:49.573Z,1101.51
2018-09-13T10:51:48.183Z,1101.15
2018-09-13T10:52:48.248Z,1100.8
2018-09-13T10:53:48.178Z,1100.34
2018-09-13T10:54:48.193Z,1100.05
2018-09-13T10:55:48.278Z,1099.64
2018-09-13T10:56:48.203Z,1099.25
2018-09-13T10:57:48.198Z,1098.77
2018-09-13T10:58:48.204Z,1098.29
2018-09-13T10:59:48.218Z,1098.03
2018-09-13T11:00:48.191Z,1097.57
2018-09-13T11:01:48.211Z,1096.98
2018-09-13T11:02:48.208Z,1096.49
2018-09-13T11:03:48.232Z,1095.99
2018-09-13T11:04:48.253Z,1095.31
2018-09-13T11:05:48.238Z,1095.06
2018-09-13T11:06:48.236Z,1094.76
2018-09-13T11:07:48.209Z,1094.36
2018-09-13T11:08:48.220Z,1094.18
2018-09-13T11:09:48.267Z,1094.29
2018-09-13T11:10:48.399Z,1094.38
2018-09-13T11:11:48.228Z,1094.33
2018-09-13T11:12:48.235Z,1093.96
2018-09-13T11:13:48.243Z,1093.78
2018-09-13T11:14:48.227Z,1093.65
2018-09-13T11:15:48.244Z,1093.47
2018-09-13T11:16:48.316Z,1093.54
2018-09-13T11:17:48.260Z,1093.36
2018-09-13T11:22:18.005Z,1093.62
2018-09-13T11:23:17.970Z,1093.59
2018-09-13T11:24:17.988Z,1093.36
2018-09-13T11:28:47.706Z,1091.2
2018-09-13T11:29:47.673Z,1090.21
2018-09-13T11:30:47.685Z,1089.36
2018-09-13T11:31:47.694Z,1088.08
2018-09-13T11:32:47.690Z,1087.01
2018-09-13T11:33:47.668Z,1085.95
2018-09-13T11:34:47.665Z,1084.88
2018-09-13T11:35:47.764Z,1084.2
2018-09-13T11:36:47.684Z,1083.51
2018-09-13T11:37:47.701Z,1082.96
2018-09-13T11:38:47.771Z,1082.35
2018-09-13T11:39:47.686Z,1081.51
2018-09-13T11:40:47.951Z,1080.98
2018-09-13T11:41:47.711Z,1080.1
2018-09-13T11:42:47.684Z,1079.31
2018-09-13T11:43:47.698Z,1078.4
2018-09-13T11:44:47.742Z,1077.51
2018-09-13T11:45:47.700Z,1077.13
2018-09-13T11:46:47.719Z,1076.88
2018-09-13T11:47:47.684Z,1075.93
2018-09-13T11:48:47.726Z,1075.07
2018-09-13T11:49:47.707Z,1074.89
2018-09-13T11:50:47.698Z,1074.68
2018-09-13T11:51:47.719Z,1074.69
2018-09-13T11:52:47.791Z,1074.48
2018-09-13T11:53:47.740Z,1074.27
2018-09-13T11:54:47.700Z,1074.34
2018-09-13T11:55:47.733Z,1074.22
2018-09-13T11:56:47.706Z,1073.93
2018-09-13T11:57:47.742Z,1073.61
2018-09-13T11:58:47.788Z,1073.11
2018-09-13T11:59:47.725Z,1072.61
2018-09-13T12:00:47.743Z,1071.88
2018-09-13T12:01:47.779Z,1071.29
2018-09-13T12:02:47.728Z,1070.92
2018-09-13T12:03:47.754Z,1070.84
2018-09-13T12:04:47.739Z,1070.81
2018-09-13T12:05:47.731Z,1070.49
2018-09-13T12:06:47.754Z,1070.55
2018-09-13T12:07:47.784Z,1070.16
2018-09-13T12:08:47.753Z,1068.78
2018-09-13T12:09:47.775Z,1066.78
2018-09-13T12:10:47.750Z,1064.83
2018-09-13T12:11:47.787Z,1062.97
2018-09-13T12:12:47.817Z,1060.37
2018-09-13T12:13:47.759Z,1059.85
2018-09-13T12:14:47.769Z,1059.19
2018-09-13T12:15:47.768Z,1058.59
2018-09-13T12:16:47.770Z,1056.82
2018-09-13T12:17:47.764Z,1055.07
2018-09-13T12:18:47.797Z,1052.88
2018-09-13T12:19:47.762Z,1048.65
2018-09-13T12:20:47.772Z,1045.74
2018-09-13T12:21:47.849Z,1042.4
2018-09-13T12:22:47.818Z,1036.51
2018-09-13T12:23:47.758Z,1033.69
2018-09-13T12:24:47.759Z,1032.87
2018-09-13T12:25:47.828Z,1032.26
2018-09-13T12:26:47.815Z,1031.7
2018-09-13T12:27:47.846Z,1031.45
2018-09-13T12:28:47.789Z,1030.67
2018-09-13T12:29:47.797Z,1030.23
2018-09-13T12:30:47.789Z,1029.69
2018-09-13T12:31:47.806Z,1029.4
2018-09-13T12:32:47.772Z,1029.43
2018-09-13T12:33:47.872Z,1029.13
2018-09-13T12:34:47.796Z,1029.29
2018-09-13T12:35:47.848Z,1029.61
2018-09-13T12:36:47.802Z,1029.71
2018-09-13T12:37:47.787Z,1030.09
2018-09-13T12:38:48.202Z,1030.17
2018-09-13T12:39:47.874Z,1030
2018-09-13T12:40:47.790Z,1029.83
2018-09-13T12:41:47.888Z,1029.89
2018-09-13T12:42:47.811Z,1029.59
2018-09-13T12:43:47.790Z,1029.74
2018-09-13T12:44:47.904Z,1030.08
2018-09-13T12:45:47.791Z,1030.47
2018-09-13T12:46:47.796Z,1030.6
2018-09-13T12:47:47.804Z,1030.94
2018-09-13T12:48:47.809Z,1031.59
2018-09-13T12:49:47.912Z,1032.05
2018-09-13T12:50:47.821Z,1032.39
2018-09-13T12:51:47.828Z,1032.73
2018-09-13T12:52:47.802Z,1033.18
2018-09-13T12:53:47.824Z,1033.41
2018-09-13T12:54:47.832Z,1033.82
2018-09-13T12:55:47.816Z,1034.22
2018-09-13T12:56:47.997Z,1034.03
2018-09-13T12:57:47.839Z,1033.85
2018-09-13T12:58:47.818Z,1033.88
2018-09-13T12:59:47.818Z,1034.33
2018-09-13T13:00:47.834Z,1034.16
2018-09-13T13:01:47.827Z,1034.02
2018-09-13T13:02:47.836Z,1033.53
2018-09-13T13:03:47.840Z,1033.37
2018-09-13T13:04:47.840Z,1032.85
2018-09-13T13:05:47.865Z,1032.39
2018-09-13T13:06:47.956Z,1031.23
2018-09-13T13:07:48.020Z,1030.15
2018-09-13T13:08:49.290Z,1028.94
2018-09-13T13:09:47.954Z,1026.96
2018-09-13T13:10:47.856Z,1025.28
2018-09-13T13:11:47.872Z,1022.18
2018-09-13T13:12:47.873Z,1018.5
2018-09-13T13:13:47.848Z,1015.54
2018-09-13T13:14:47.854Z,1013.56
2018-09-13T13:15:47.856Z,1012.12